Arago, Minnesota
Current Conditions -  °F | °C
As of 2:53 PM on Tuesday 27 Jan 2015 (Local Time) from KPKD Reporting Station
Broken Clouds Broken Clouds  
Wind Chill: 26°   Ceiling: 12000
Heat Index: 35°   Visibility: 10mi
Dew Point: 27°   Wind: 14mph
Humidity: 72%   Direction: 160°SSE
Pressure: 30.02"   Gusts: NA
Location:  46.9966°N, 95.0029°W
Report Text: KPKD 272053Z AUTO 16012KT 10SM FEW013 BKN120 02/M03 A3002 RMK AO2 SLP185 T00171028 58020
Loading
Personal Weather Stations






























Interactive Weather Map New forecast layout! Learn more

10-Day Weather Forecast

Advertisements
Track Severe Weather on mobile